Subaru Cyclo Cup - Day One - 12:00

Saturday, November 14, 2015 12:07 PM (GMT-8) - Final results

Race info
Sport: Cycling - cyclocross
Location: Lakewood, WA, United States
Start type: Mass start
Racers: 25
Laps: Time-limited
Timed on: iPhone
Timed with: Webscorer PRO 2.1
Chip timing: RFID - LLRP
Updated: Wednesday, November 18, 2015 5:43 PM (GMT-8)
Organized by: MFG Presents
Race website: www.mfgcyclocross.com

Contact organizer

Use this form to send an email to the organizer.

Your name
Your email address
Confirm email address
Message to organizer
Send

Subaru Cyclo Cup - Day One - 12:00

  • Race winners »
  • Overall - Cat 3 Men 45+
  • Lap times
Place Bib Racer name Affiliation Category Age Lap time
1 558 Jeff Aken 1266  Cat 3 Men 45+ 48 8:48.3 -+0.00%100.00%1
2 353 Pedro Deguzman Hotwire / Alki Velo Club - 457786  Cat 3 Men 45+ 45 8:51.6 +0:03.3+0.62%99.38%1
3 556 Randy Manion Dyna Racing - 288325  Cat 3 Men 45+ 46 8:53.8 +0:05.5+1.04%98.97%1
4 543 Bob Kruger Native - 224684  Cat 3 Men 45+ 46 9:00.0 +0:11.7+2.21%97.83%5
5 555 Erik Olson Cucina Fresca - 26714  Cat 3 Men 45+ 50 9:01.2 +0:12.9+2.44%97.62%1
6 353 Pedro Deguzman Hotwire / Alki Velo Club - 457786  Cat 3 Men 45+ 45 9:05.7 +0:17.4+3.29%96.81%2
7 600 Steve Hindman Pen Velo Racing/Summit Bikes - 62921  Cat 3 Men 45+ 48 9:06.2 +0:17.9+3.39%96.72%1
8 558 Jeff Aken 1266  Cat 3 Men 45+ 48 9:10.4 +0:22.1+4.18%95.98%2
9 551 Pat Miller Hagens Berman Society Consulting - 416814  Cat 3 Men 45+ 44 9:10.8 +0:22.5+4.26%95.92%1
10 555 Erik Olson Cucina Fresca - 26714  Cat 3 Men 45+ 50 9:11.0 +0:22.7+4.30%95.88%5
11 543 Bob Kruger Native - 224684  Cat 3 Men 45+ 46 9:11.7 +0:23.4+4.43%95.76%1
12 550 Denny Bartlett Bikesport - 49565  Cat 3 Men 45+ 47 9:13.3 +0:25.0+4.73%95.48%1
13 545 Owen Scott Steed Cycles - BC001656  Cat 3 Men 45+ 48 9:14.1 +0:25.8+4.88%95.34%1
14 551 Pat Miller Hagens Berman Society Consulting - 416814  Cat 3 Men 45+ 44 9:16.0 +0:27.7+5.24%95.02%5
15 353 Pedro Deguzman Hotwire / Alki Velo Club - 457786  Cat 3 Men 45+ 45 9:16.5 +0:28.2+5.34%94.93%3
16 353 Pedro Deguzman Hotwire / Alki Velo Club - 457786  Cat 3 Men 45+ 45 9:17.8 +0:29.5+5.58%94.71%4
17 353 Pedro Deguzman Hotwire / Alki Velo Club - 457786  Cat 3 Men 45+ 45 9:18.0 +0:29.7+5.62%94.68%5
18 543 Bob Kruger Native - 224684  Cat 3 Men 45+ 46 9:19.4 +0:31.1+5.89%94.44%4
19 556 Randy Manion Dyna Racing - 288325  Cat 3 Men 45+ 46 9:19.8 +0:31.5+5.96%94.37%2
20 556 Randy Manion Dyna Racing - 288325  Cat 3 Men 45+ 46 9:20.0 +0:31.7+6.00%94.34%5
20 600 Steve Hindman Pen Velo Racing/Summit Bikes - 62921  Cat 3 Men 45+ 48 9:20.0 +0:31.7+6.00%94.34%5
22 546 Todd Reedy 457546  Cat 3 Men 45+ 52 9:22.8 +0:34.5+6.53%93.87%1
23 544 TODD ANDERSON Bike Masters - 1713  Cat 3 Men 45+ 53 9:23.5 +0:35.2+6.66%93.75%1
23 554 John Drenning Dyna Racing - 121908  Cat 3 Men 45+ 47 9:23.5 +0:35.2+6.66%93.75%1
25 559 Greg Sweney Motofish - 306900  Cat 3 Men 45+ 48 9:24.0 +0:35.7+6.76%93.67%5
26 551 Pat Miller Hagens Berman Society Consulting - 416814  Cat 3 Men 45+ 44 9:24.4 +0:36.1+6.83%93.60%2
27 541 Darrin Grund EV/DEVO P/B Catalyst Kinetics - CAN19661217  Cat 3 Men 45+ 49 9:27.4 +0:39.1+7.40%93.11%1
27 549 Kenneth Ramirez Nemesis Racing - 255649  Cat 3 Men 45+ 46 9:27.4 +0:39.1+7.40%93.11%1
29 555 Erik Olson Cucina Fresca - 26714  Cat 3 Men 45+ 50 9:28.7 +0:40.4+7.65%92.90%2
30 551 Pat Miller Hagens Berman Society Consulting - 416814  Cat 3 Men 45+ 44 9:29.0 +0:40.7+7.70%92.85%3
31 553 Chris Rodde Cucina Fresca - 30273  Cat 3 Men 45+ 46 9:29.3 +0:41.0+7.76%92.80%1
32 600 Steve Hindman Pen Velo Racing/Summit Bikes - 62921  Cat 3 Men 45+ 48 9:29.6 +0:41.3+7.82%92.75%2
33 600 Steve Hindman Pen Velo Racing/Summit Bikes - 62921  Cat 3 Men 45+ 48 9:30.0 +0:41.7+7.89%92.68%3
33 550 Denny Bartlett Bikesport - 49565  Cat 3 Men 45+ 47 9:30.0 +0:41.7+7.89%92.68%5
35 543 Bob Kruger Native - 224684  Cat 3 Men 45+ 46 9:30.5 +0:42.2+7.99%92.60%3
36 551 Pat Miller Hagens Berman Society Consulting - 416814  Cat 3 Men 45+ 44 9:31.3 +0:43.0+8.14%92.47%4
37 550 Denny Bartlett Bikesport - 49565  Cat 3 Men 45+ 47 9:33.9 +0:45.6+8.63%92.05%2
38 543 Bob Kruger Native - 224684  Cat 3 Men 45+ 46 9:34.0 +0:45.7+8.65%92.04%2
39 555 Erik Olson Cucina Fresca - 26714  Cat 3 Men 45+ 50 9:34.4 +0:46.1+8.73%91.97%3
40 545 Owen Scott Steed Cycles - BC001656  Cat 3 Men 45+ 48 9:35.0 +0:46.7+8.84%91.88%5
41 550 Denny Bartlett Bikesport - 49565  Cat 3 Men 45+ 47 9:36.7 +0:48.4+9.16%91.61%3
42 555 Erik Olson Cucina Fresca - 26714  Cat 3 Men 45+ 50 9:36.9 +0:48.6+9.20%91.58%4
43 562 George Jackson Old Town Bicycle P/B Green Earthworks - 256713  Cat 3 Men 45+ 52 9:38.0 +0:49.7+9.41%91.40%1
44 558 Jeff Aken 1266  Cat 3 Men 45+ 48 9:39.0 +0:50.7+9.60%91.24%3
44 541 Darrin Grund EV/DEVO P/B Catalyst Kinetics - CAN19661217  Cat 3 Men 45+ 49 9:39.0 +0:50.7+9.60%91.24%5
46 548 Paul Claeys Dyna Racing - 362192  Cat 3 Men 45+ 51 9:39.4 +0:51.1+9.67%91.18%1
47 556 Randy Manion Dyna Racing - 288325  Cat 3 Men 45+ 46 9:39.7 +0:51.4+9.73%91.13%3
48 546 Todd Reedy 457546  Cat 3 Men 45+ 52 9:40.0 +0:51.7+9.79%91.09%5
48 548 Paul Claeys Dyna Racing - 362192  Cat 3 Men 45+ 51 9:40.0 +0:51.7+9.79%91.09%5
50 559 Greg Sweney Motofish - 306900  Cat 3 Men 45+ 48 9:40.5 +0:52.2+9.88%91.01%1
51 600 Steve Hindman Pen Velo Racing/Summit Bikes - 62921  Cat 3 Men 45+ 48 9:40.9 +0:52.6+9.96%90.95%4
52 546 Todd Reedy 457546  Cat 3 Men 45+ 52 9:41.3 +0:53.0+10.03%90.88%2
53 554 John Drenning Dyna Racing - 121908  Cat 3 Men 45+ 47 9:41.6 +0:53.3+10.09%90.84%2
54 554 John Drenning Dyna Racing - 121908  Cat 3 Men 45+ 47 9:42.0 +0:53.7+10.16%90.77%5
55 549 Kenneth Ramirez Nemesis Racing - 255649  Cat 3 Men 45+ 46 9:43.2 +0:54.9+10.39%90.59%2
56 556 Randy Manion Dyna Racing - 288325  Cat 3 Men 45+ 46 9:44.2 +0:55.9+10.58%90.43%4
57 559 Greg Sweney Motofish - 306900  Cat 3 Men 45+ 48 9:44.3 +0:56.0+10.60%90.42%2
58 557 Brett Gaspers Cycle U/Apex Racing - 222902  Cat 3 Men 45+ 51 9:44.7 +0:56.4+10.68%90.35%1
59 541 Darrin Grund EV/DEVO P/B Catalyst Kinetics - CAN19661217  Cat 3 Men 45+ 49 9:44.8 +0:56.5+10.69%90.34%2
60 544 TODD ANDERSON Bike Masters - 1713  Cat 3 Men 45+ 53 9:46.0 +0:57.7+10.92%90.15%5
61 552 Nigel Newby-House Motofish - One-Day  Cat 3 Men 45+ 46 9:47.4 +0:59.1+11.19%89.94%1
62 544 TODD ANDERSON Bike Masters - 1713  Cat 3 Men 45+ 53 9:48.5 +1:00.2+11.40%89.77%2
63 550 Denny Bartlett Bikesport - 49565  Cat 3 Men 45+ 47 9:49.3 +1:01.0+11.55%89.65%4
64 544 TODD ANDERSON Bike Masters - 1713  Cat 3 Men 45+ 53 9:52.5 +1:04.2+12.15%89.16%3
65 561 Nathan Webster Blue Rooster - 52142  Cat 3 Men 45+ 48 9:53.6 +1:05.3+12.36%89.00%1
66 554 John Drenning Dyna Racing - 121908  Cat 3 Men 45+ 47 9:54.4 +1:06.1+12.51%88.88%3
67 557 Brett Gaspers Cycle U/Apex Racing - 222902  Cat 3 Men 45+ 51 9:56.0 +1:07.7+12.81%88.64%2
67 549 Kenneth Ramirez Nemesis Racing - 255649  Cat 3 Men 45+ 46 9:56.0 +1:07.7+12.81%88.64%3
69 559 Greg Sweney Motofish - 306900  Cat 3 Men 45+ 48 9:57.2 +1:08.9+13.04%88.46%4
70 548 Paul Claeys Dyna Racing - 362192  Cat 3 Men 45+ 51 9:57.5 +1:09.2+13.10%88.42%2
71 544 TODD ANDERSON Bike Masters - 1713  Cat 3 Men 45+ 53 9:57.8 +1:09.5+13.16%88.37%4
72 546 Todd Reedy 457546  Cat 3 Men 45+ 52 9:58.5 +1:10.2+13.29%88.27%3
72 559 Greg Sweney Motofish - 306900  Cat 3 Men 45+ 48 9:58.5 +1:10.2+13.29%88.27%3
74 554 John Drenning Dyna Racing - 121908  Cat 3 Men 45+ 47 9:59.5 +1:11.2+13.48%88.12%4
75 561 Nathan Webster Blue Rooster - 52142  Cat 3 Men 45+ 48 10:00.0 +1:11.7+13.57%88.05%4
75 562 George Jackson Old Town Bicycle P/B Green Earthworks - 256713  Cat 3 Men 45+ 52 10:00.0 +1:11.7+13.57%88.05%5
77 545 Owen Scott Steed Cycles - BC001656  Cat 3 Men 45+ 48 10:00.5 +1:12.2+13.67%87.98%4
78 548 Paul Claeys Dyna Racing - 362192  Cat 3 Men 45+ 51 10:03.4 +1:15.1+14.22%87.55%3
79 541 Darrin Grund EV/DEVO P/B Catalyst Kinetics - CAN19661217  Cat 3 Men 45+ 49 10:06.3 +1:18.0+14.76%87.14%3
80 599 Carl Anton Recycled Cycles Racing - One-Day  Cat 3 Men 45+ 45 10:06.7 +1:18.4+14.84%87.08%1
81 541 Darrin Grund EV/DEVO P/B Catalyst Kinetics - CAN19661217  Cat 3 Men 45+ 49 10:07.5 +1:19.2+14.99%86.96%4
82 545 Owen Scott Steed Cycles - BC001656  Cat 3 Men 45+ 48 10:09.2 +1:20.9+15.31%86.72%2
82 562 George Jackson Old Town Bicycle P/B Green Earthworks - 256713  Cat 3 Men 45+ 52 10:09.2 +1:20.9+15.31%86.72%2
84 552 Nigel Newby-House Motofish - One-Day  Cat 3 Men 45+ 46 10:10.0 +1:21.7+15.46%86.61%5
85 548 Paul Claeys Dyna Racing - 362192  Cat 3 Men 45+ 51 10:11.5 +1:23.2+15.75%86.39%4
86 545 Owen Scott Steed Cycles - BC001656  Cat 3 Men 45+ 48 10:12.7 +1:24.4+15.98%86.22%3
87 557 Brett Gaspers Cycle U/Apex Racing - 222902  Cat 3 Men 45+ 51 10:15.4 +1:27.1+16.49%85.85%3
88 546 Todd Reedy 457546  Cat 3 Men 45+ 52 10:18.5 +1:30.2+17.07%85.42%4
89 549 Kenneth Ramirez Nemesis Racing - 255649  Cat 3 Men 45+ 46 10:20.0 +1:31.7+17.36%85.21%5
90 552 Nigel Newby-House Motofish - One-Day  Cat 3 Men 45+ 46 10:20.3 +1:32.0+17.41%85.17%2
91 552 Nigel Newby-House Motofish - One-Day  Cat 3 Men 45+ 46 10:22.7 +1:34.4+17.87%84.84%3
92 552 Nigel Newby-House Motofish - One-Day  Cat 3 Men 45+ 46 10:27.2 +1:38.9+18.72%84.23%4
93 549 Kenneth Ramirez Nemesis Racing - 255649  Cat 3 Men 45+ 46 10:28.8 +1:40.5+19.02%84.02%4
94 562 George Jackson Old Town Bicycle P/B Green Earthworks - 256713  Cat 3 Men 45+ 52 10:32.3 +1:44.0+19.69%83.55%4
95 557 Brett Gaspers Cycle U/Apex Racing - 222902  Cat 3 Men 45+ 51 10:35.6 +1:47.3+20.31%83.12%4
96 562 George Jackson Old Town Bicycle P/B Green Earthworks - 256713  Cat 3 Men 45+ 52 10:37.1 +1:48.8+20.59%82.92%3
97 599 Carl Anton Recycled Cycles Racing - One-Day  Cat 3 Men 45+ 45 10:43.6 +1:55.3+21.82%82.09%2
98 561 Nathan Webster Blue Rooster - 52142  Cat 3 Men 45+ 48 10:47.6 +1:59.3+22.58%81.58%3
99 542 Tim Kibler PCP Racing - 66004  Cat 3 Men 45+ 49 10:50.6 +2:02.3+23.15%81.20%1
100 599 Carl Anton Recycled Cycles Racing - One-Day  Cat 3 Men 45+ 45 10:55.4 +2:07.1+24.06%80.61%3
101 542 Tim Kibler PCP Racing - 66004  Cat 3 Men 45+ 49 11:00.0 +2:11.7+24.93%80.05%4
101 547 Carl Franssen One-Day  Cat 3 Men 45+ 52 11:00.0 +2:11.7+24.93%80.05%4
103 547 Carl Franssen One-Day  Cat 3 Men 45+ 52 11:09.9 +2:21.6+26.80%78.86%1
104 561 Nathan Webster Blue Rooster - 52142  Cat 3 Men 45+ 48 11:10.8 +2:22.5+26.97%78.76%2
105 542 Tim Kibler PCP Racing - 66004  Cat 3 Men 45+ 49 11:14.0 +2:25.7+27.58%78.38%2
106 547 Carl Franssen One-Day  Cat 3 Men 45+ 52 11:16.7 +2:28.4+28.09%78.07%2
107 599 Carl Anton Recycled Cycles Racing - One-Day  Cat 3 Men 45+ 45 11:20.0 +2:31.7+28.71%77.69%4
108 560 Reeve Geary Blue Rooster - 12989  Cat 3 Men 45+ 49 11:21.0 +2:32.7+28.90%77.58%1
109 542 Tim Kibler PCP Racing - 66004  Cat 3 Men 45+ 49 11:25.7 +2:37.4+29.79%77.05%3
110 560 Reeve Geary Blue Rooster - 12989  Cat 3 Men 45+ 49 11:35.0 +2:46.7+31.55%76.01%4
111 547 Carl Franssen One-Day  Cat 3 Men 45+ 52 11:38.9 +2:50.6+32.29%75.59%3
112 560 Reeve Geary Blue Rooster - 12989  Cat 3 Men 45+ 49 11:50.9 +3:02.6+34.56%74.31%2
113 560 Reeve Geary Blue Rooster - 12989  Cat 3 Men 45+ 49 12:01.1 +3:12.8+36.49%73.26%3